Time;durP1;ratioP1;P1;durP2;ratioP2;P2;SDS_P1;SDS_P2;PMS_P1;PMS_P2;Temp;Humidity;BMP_temperature;BMP_pressure;BME280_temperature;BME280_humidity;BME280_pressure;Samples;Min_cycle;Max_cycle;Signal;HPM_P1;HPM_P2
2023/10/19 00:00:50;;;;;;;14.73;6.50;;;;;;;14.20;61.94;99206.03;5094122;28;20194;-91
2023/10/19 00:03:17;;;;;;;10.50;5.73;;;;;;;14.15;61.74;99202.81;5094248;28;20662;-91
2023/10/19 00:05:49;;;;;;;8.90;5.30;;;;;;;14.16;61.92;99204.53;5093052;28;20644;-91
2023/10/19 00:08:17;;;;;;;11.70;5.27;;;;;;;14.09;61.85;99209.38;5092774;28;20180;-90
2023/10/19 00:10:48;;;;;;;11.90;6.07;;;;;;;14.03;62.18;99203.63;5093877;28;20233;-91
2023/10/19 00:13:16;;;;;;;10.30;5.77;;;;;;;13.93;62.36;99203.41;5094203;28;20652;-91
2023/10/19 00:15:52;;;;;;;11.20;5.93;;;;;;;13.92;62.60;99204.34;5092310;28;20189;-91
2023/10/19 00:20:52;;;;;;;11.97;6.37;;;;;;;13.95;62.69;99185.69;5093541;28;20194;-90
2023/10/19 00:23:29;;;;;;;13.60;5.93;;;;;;;13.92;62.90;99190.31;5053623;28;20170;-91
2023/10/19 00:26:10;;;;;;;10.93;4.77;;;;;;;13.89;62.55;99191.34;5053788;28;20172;-91
2023/10/19 00:28:38;;;;;;;12.30;5.53;;;;;;;13.82;62.74;99189.22;5089460;28;20184;-91
2023/10/19 00:31:08;;;;;;;10.93;6.17;;;;;;;13.77;62.07;99192.16;5094139;28;20183;-91
2023/10/19 00:33:38;;;;;;;10.63;5.47;;;;;;;13.78;62.27;99185.09;5093271;28;20219;-91
2023/10/19 00:36:12;;;;;;;11.00;5.53;;;;;;;13.77;62.18;99188.69;5093279;28;20164;-91
2023/10/19 00:38:47;;;;;;;9.93;5.50;;;;;;;13.68;62.21;99187.47;5093022;28;20231;-90
2023/10/19 00:41:14;;;;;;;11.50;6.17;;;;;;;13.64;62.28;99188.63;5094042;28;20227;-90
2023/10/19 00:43:44;;;;;;;12.13;5.23;;;;;;;13.62;62.13;99187.88;5093360;28;20180;-90
2023/10/19 00:48:58;;;;;;;11.60;6.37;;;;;;;13.50;62.22;99176.34;5093161;28;20604;-90
2023/10/19 00:51:42;;;;;;;12.60;6.00;;;;;;;13.43;62.13;99180.31;5093679;28;20164;-91
2023/10/19 00:54:26;;;;;;;8.77;5.50;;;;;;;13.46;62.50;99171.38;5093028;28;20189;-90
2023/10/19 00:56:56;;;;;;;10.77;5.30;;;;;;;13.41;62.49;99170.81;5093191;28;20267;-90
2023/10/19 00:59:23;;;;;;;14.30;6.73;;;;;;;13.35;62.52;99169.41;5093747;28;20183;-90
2023/10/19 01:01:54;;;;;;;10.50;5.73;;;;;;;13.35;62.74;99184.34;5093232;28;20664;-90
2023/10/19 01:04:31;;;;;;;8.77;5.13;;;;;;;13.35;63.03;99172.03;5093571;28;20148;-90
2023/10/19 01:07:39;;;;;;;12.67;5.80;;;;;;;13.37;62.74;99183.31;5092726;28;20191;-90
2023/10/19 01:09:45;;;;;;;11.47;5.97;;;;;;;13.30;62.44;99178.53;5084714;28;20712;-91
2023/10/19 01:12:25;;;;;;;15.07;5.73;;;;;;;13.24;62.21;99174.50;5092732;28;20180;-91
2023/10/19 01:15:17;;;;;;;10.80;5.43;;;;;;;13.14;62.26;99168.13;5092651;28;20187;-91
2023/10/19 01:17:51;;;;;;;23.33;5.70;;;;;;;13.10;61.97;99168.44;5092337;28;20186;-91
2023/10/19 01:28:16;;;;;;;17.20;7.37;;;;;;;12.90;62.91;99156.44;5092886;28;20244;-90
2023/10/19 01:30:44;;;;;;;10.63;5.83;;;;;;;12.92;62.49;99150.16;5093049;28;20588;-90
2023/10/19 01:33:15;;;;;;;9.50;5.07;;;;;;;12.92;62.63;99147.53;5092648;28;20236;-90
2023/10/19 01:38:30;;;;;;;12.23;5.47;;;;;;;12.91;63.22;99153.75;5092948;28;20303;-90
2023/10/19 01:40:59;;;;;;;12.40;6.10;;;;;;;12.89;63.02;99160.03;5092912;28;20188;-91
2023/10/19 01:43:30;;;;;;;11.47;5.30;;;;;;;12.84;62.96;99156.84;5092671;28;20183;-89
2023/10/19 01:45:58;;;;;;;10.80;5.80;;;;;;;12.82;62.29;99156.06;5093474;28;20203;-88
2023/10/19 01:48:37;;;;;;;10.70;5.90;;;;;;;12.77;62.22;99153.72;5111437;28;20232;-89
2023/10/19 01:51:05;;;;;;;10.83;6.10;;;;;;;12.73;62.55;99149.63;5097165;28;20159;-89
2023/10/19 01:53:39;;;;;;;13.30;6.47;;;;;;;12.70;62.63;99151.56;5096448;28;20199;-89
2023/10/19 01:56:05;;;;;;;11.17;6.27;;;;;;;12.65;62.22;99146.59;5075283;28;20613;-88
2023/10/19 01:58:36;;;;;;;14.77;6.40;;;;;;;12.68;62.08;99149.03;5084895;28;20195;-89
2023/10/19 02:01:07;;;;;;;10.37;5.70;;;;;;;12.64;62.25;99150.16;5095967;28;20187;-89
2023/10/19 02:03:33;;;;;;;9.40;5.87;;;;;;;12.64;62.37;99144.06;5095280;28;20198;-89
2023/10/19 02:05:59;;;;;;;11.33;5.50;;;;;;;12.60;61.99;99148.66;5095113;28;20234;-89
2023/10/19 02:08:27;;;;;;;10.57;5.50;;;;;;;12.57;61.73;99146.22;5096333;28;20256;-88
2023/10/19 02:10:55;;;;;;;10.43;5.93;;;;;;;12.53;61.86;99149.97;5095486;28;20349;-88
2023/10/19 02:13:23;;;;;;;11.90;5.73;;;;;;;12.51;62.25;99148.34;5095056;28;20251;-89
2023/10/19 02:15:51;;;;;;;10.27;5.30;;;;;;;12.49;62.58;99144.97;5094468;28;20175;-89
2023/10/19 02:18:17;;;;;;;13.23;6.60;;;;;;;12.46;62.34;99145.16;5096370;28;20258;-88
2023/10/19 02:20:48;;;;;;;10.30;5.57;;;;;;;12.44;62.21;99149.69;5093432;28;20191;-89
2023/10/19 02:23:14;;;;;;;8.17;5.17;;;;;;;12.41;62.26;99153.34;5075655;28;20178;-88
2023/10/19 02:25:42;;;;;;;10.07;5.23;;;;;;;12.40;62.55;99154.25;5075002;28;20245;-89
2023/10/19 02:28:09;;;;;;;9.00;5.03;;;;;;;12.38;62.20;99157.91;5079301;28;20190;-89
2023/10/19 02:30:35;;;;;;;13.97;5.47;;;;;;;12.36;61.97;99159.78;5095983;28;20181;-88
2023/10/19 02:33:03;;;;;;;9.63;6.07;;;;;;;12.27;62.37;99155.91;5095583;28;20247;-88
2023/10/19 02:35:29;;;;;;;10.27;5.60;;;;;;;12.26;62.38;99157.69;5094750;28;20189;-88
2023/10/19 02:37:58;;;;;;;10.13;4.90;;;;;;;12.24;62.67;99156.94;5094426;28;20664;-89
2023/10/19 02:40:24;;;;;;;10.17;5.67;;;;;;;12.22;62.44;99155.34;5078953;28;20187;-89
2023/10/19 02:42:53;;;;;;;8.00;5.13;;;;;;;12.16;62.78;99155.69;5075362;28;20611;-89
2023/10/19 02:45:19;;;;;;;7.70;4.90;;;;;;;12.15;62.41;99152.25;5086845;28;20543;-88
2023/10/19 02:47:46;;;;;;;10.03;5.00;;;;;;;12.13;63.04;99151.47;5096038;28;20230;-88
2023/10/19 02:50:16;;;;;;;9.23;5.10;;;;;;;12.09;62.80;99147.34;5095437;28;20182;-88
2023/10/19 02:52:43;;;;;;;12.20;4.53;;;;;;;12.09;63.17;99149.13;5094940;28;20181;-88
2023/10/19 02:55:09;;;;;;;10.13;5.23;;;;;;;12.06;63.35;99146.66;5094297;28;20292;-88
2023/10/19 02:57:37;;;;;;;15.67;6.33;;;;;;;12.07;63.47;99145.75;5095316;28;20519;-89
2023/10/19 03:00:13;;;;;;;10.47;5.33;;;;;;;12.08;63.22;99140.38;5094042;28;20182;-88
2023/10/19 03:02:40;;;;;;;8.73;4.87;;;;;;;12.09;63.54;99149.13;5095512;28;20181;-88
2023/10/19 03:05:14;;;;;;;11.83;5.50;;;;;;;12.11;63.62;99144.63;5093780;28;20208;-88
2023/10/19 03:07:44;;;;;;;10.27;5.20;;;;;;;12.15;63.32;99146.16;5095943;28;20237;-88
2023/10/19 03:10:23;;;;;;;9.50;5.07;;;;;;;12.17;63.32;99149.53;5093810;28;20178;-88
2023/10/19 03:12:50;;;;;;;8.07;4.80;;;;;;;12.14;63.46;99149.69;5080584;28;20277;-88
2023/10/19 03:15:20;;;;;;;8.53;4.70;;;;;;;12.16;63.24;99148.66;5074658;28;20288;-89
2023/10/19 03:17:48;;;;;;;11.23;5.67;;;;;;;12.12;64.17;99143.69;5087926;28;20190;-89
2023/10/19 03:20:16;;;;;;;8.07;4.77;;;;;;;12.15;63.67;99146.16;5095646;28;20175;-89
2023/10/19 03:22:43;;;;;;;8.93;5.17;;;;;;;12.07;63.84;99143.97;5095649;28;20609;-88
2023/10/19 03:27:56;;;;;;;8.80;4.40;;;;;;;11.95;64.41;99152.53;5094740;28;20174;-88
2023/10/19 03:30:24;;;;;;;6.70;4.53;;;;;;;11.90;64.54;99151.13;5110503;28;20182;-89
2023/10/19 03:32:51;;;;;;;8.00;4.17;;;;;;;11.92;64.63;99149.28;5095126;28;20304;-89
2023/10/19 03:35:20;;;;;;;6.63;4.27;;;;;;;11.95;64.78;99147.28;5094549;28;20559;-88
2023/10/19 03:37:51;;;;;;;5.60;3.80;;;;;;;11.98;64.74;99155.00;5082646;28;20238;-89
2023/10/19 03:40:27;;;;;;;7.13;4.20;;;;;;;11.96;64.56;99145.50;5074801;28;20242;-89
2023/10/19 03:42:54;;;;;;;6.33;4.13;;;;;;;11.92;64.69;99150.13;5079932;28;20176;-89
2023/10/19 03:45:24;;;;;;;7.97;4.40;;;;;;;11.91;64.53;99147.56;5094434;28;20177;-89
2023/10/19 03:47:53;;;;;;;6.30;4.03;;;;;;;11.90;64.80;99145.84;5069980;28;20195;-88
2023/10/19 03:50:22;;;;;;;6.03;3.90;;;;;;;11.91;64.86;99147.56;5060124;28;20180;-88
2023/10/19 03:52:48;;;;;;;6.47;4.30;;;;;;;11.97;65.00;99147.22;5094241;28;20206;-88
2023/10/19 03:55:18;;;;;;;12.40;4.40;;;;;;;12.01;64.95;99144.31;5093554;28;20205;-88
2023/10/19 03:57:51;;;;;;;7.57;4.43;;;;;;;12.00;64.74;99137.34;5093506;28;20268;-88
2023/10/19 04:00:24;;;;;;;8.47;4.33;;;;;;;11.95;64.78;99134.16;5092929;28;20180;-89
2023/10/19 04:02:53;;;;;;;6.20;3.67;;;;;;;11.86;65.41;99136.47;5093412;28;20256;-89
2023/10/19 04:05:23;;;;;;;7.43;4.23;;;;;;;11.83;65.40;99131.41;5093961;28;20174;-89
2023/10/19 04:07:56;;;;;;;6.53;4.10;;;;;;;11.82;65.55;99132.34;5109263;28;20265;-89
2023/10/19 04:10:29;;;;;;;7.07;4.27;;;;;;;11.76;65.82;99127.44;5109303;28;20634;-89
2023/10/19 04:12:59;;;;;;;7.10;4.87;;;;;;;11.74;66.33;99137.19;5094167;28;20168;-89
2023/10/19 04:15:29;;;;;;;7.60;4.20;;;;;;;11.77;66.45;99134.38;5092654;28;20199;-89
2023/10/19 04:17:58;;;;;;;8.27;4.70;;;;;;;11.81;66.66;99135.91;5092812;28;20182;-89
2023/10/19 04:22:53;;;;;;;8.37;4.97;;;;;;;11.79;66.52;99138.63;5094297;28;20222;-89
2023/10/19 04:25:20;;;;;;;7.07;3.97;;;;;;;11.78;67.08;99146.56;5093715;28;20601;-89
2023/10/19 04:27:48;;;;;;;6.03;3.83;;;;;;;11.80;66.52;99144.69;5074087;28;20295;-88
2023/10/19 04:30:16;;;;;;;9.83;4.07;;;;;;;11.83;66.55;99144.53;5074180;28;20272;-88
2023/10/19 04:32:45;;;;;;;7.30;4.00;;;;;;;11.86;66.36;99147.84;5073268;28;20255;-88
2023/10/19 04:35:15;;;;;;;7.30;3.70;;;;;;;11.85;66.74;99145.28;5052545;28;20206;-88
2023/10/19 04:37:42;;;;;;;7.27;5.07;;;;;;;11.87;66.56;99146.88;5052484;28;20244;-88
2023/10/19 04:40:11;;;;;;;8.27;4.10;;;;;;;11.88;66.43;99142.47;5065611;28;20614;-88
2023/10/19 04:42:38;;;;;;;5.97;3.80;;;;;;;11.93;66.47;99143.06;5092472;28;20199;-88
2023/10/19 04:45:06;;;;;;;6.97;4.20;;;;;;;11.96;66.24;99142.88;5092469;28;20169;-88
2023/10/19 04:47:36;;;;;;;7.73;4.23;;;;;;;11.96;66.11;99142.88;5093339;28;20192;-88
2023/10/19 04:50:04;;;;;;;6.10;3.97;;;;;;;11.96;65.57;99145.50;5092381;28;20389;-87
2023/10/19 04:52:32;;;;;;;7.30;4.10;;;;;;;11.98;65.44;99151.53;5092369;28;20181;-87
2023/10/19 04:54:59;;;;;;;5.87;4.20;;;;;;;11.96;65.16;99151.63;5092927;28;20208;-88
2023/10/19 04:57:26;;;;;;;8.37;4.53;;;;;;;11.98;65.25;99157.63;5092607;28;20181;-88
2023/10/19 04:59:51;;;;;;;7.43;4.00;;;;;;;11.99;64.90;99151.44;5092916;28;20224;-89
2023/10/19 05:02:18;;;;;;;8.20;4.87;;;;;;;12.01;64.92;99156.59;5093511;28;20217;-88
2023/10/19 05:04:45;;;;;;;7.23;4.63;;;;;;;12.05;65.05;99166.00;5093329;28;20207;-89
2023/10/19 05:07:19;;;;;;;7.27;4.63;;;;;;;12.09;65.01;99164.88;5092006;28;20191;-88
2023/10/19 05:09:46;;;;;;;7.23;4.00;;;;;;;12.17;64.44;99170.53;5092222;28;20233;-87
2023/10/19 05:12:14;;;;;;;6.90;3.87;;;;;;;12.23;64.48;99162.31;5082542;28;20191;-88
2023/10/19 05:14:44;;;;;;;7.17;4.60;;;;;;;12.30;64.80;99169.75;5069909;28;20229;-88
2023/10/19 05:17:10;;;;;;;6.67;3.80;;;;;;;12.40;64.19;99161.28;5080825;28;20189;-88
2023/10/19 05:19:38;;;;;;;8.00;3.67;;;;;;;12.53;64.42;99171.00;5093072;28;20535;-88
2023/10/19 05:22:06;;;;;;;8.20;4.70;;;;;;;12.68;64.24;99164.81;5093060;28;20184;-88
2023/10/19 05:24:35;;;;;;;8.97;5.10;;;;;;;12.78;63.97;99167.75;5097295;28;20177;-88
2023/10/19 05:27:02;;;;;;;8.67;4.97;;;;;;;12.83;63.89;99174.41;5097420;28;20259;-88
2023/10/19 05:29:28;;;;;;;9.27;5.17;;;;;;;12.92;64.43;99165.94;5096031;28;20249;-88
2023/10/19 05:31:57;;;;;;;8.10;5.03;;;;;;;13.05;64.17;99165.19;5096941;28;20223;-88
2023/10/19 05:34:29;;;;;;;8.90;5.50;;;;;;;13.15;64.13;99168.97;5095895;28;20203;-88
2023/10/19 05:36:58;;;;;;;9.30;5.70;;;;;;;13.18;63.75;99171.44;5097376;28;20187;-88
2023/10/19 05:39:27;;;;;;;9.00;5.27;;;;;;;13.15;63.68;99164.56;5096721;28;20189;-88
2023/10/19 05:41:55;;;;;;;8.63;5.07;;;;;;;13.11;63.50;99172.72;5112551;28;20278;-88
2023/10/19 05:44:24;;;;;;;13.77;6.37;;;;;;;13.11;63.69;99178.84;5095804;28;20206;-88
2023/10/19 05:46:51;;;;;;;13.60;6.53;;;;;;;13.00;63.64;99175.16;5096636;28;20283;-88
2023/10/19 05:49:16;;;;;;;7.80;4.70;;;;;;;12.95;64.07;99178.91;5096123;28;20183;-89
2023/10/19 05:51:44;;;;;;;9.13;5.30;;;;;;;13.01;63.79;99184.72;5097182;28;20179;-88
2023/10/19 05:54:12;;;;;;;11.50;5.73;;;;;;;13.08;64.13;99183.44;5096169;28;20570;-88
2023/10/19 05:56:38;;;;;;;11.20;6.03;;;;;;;13.17;64.08;99174.97;5094888;28;20183;-88
2023/10/19 05:59:05;;;;;;;10.17;6.37;;;;;;;13.24;64.16;99171.03;5096063;28;20180;-88
2023/10/19 06:01:32;;;;;;;9.23;5.73;;;;;;;13.41;64.13;99174.31;5096231;28;20173;-89
2023/10/19 06:03:59;;;;;;;11.17;7.03;;;;;;;13.66;63.94;99168.28;5095370;28;20176;-88
2023/10/19 06:06:29;;;;;;;10.80;5.93;;;;;;;13.93;62.83;99165.66;5094828;28;20189;-89
2023/10/19 06:08:55;;;;;;;9.43;5.77;;;;;;;14.28;62.50;99165.97;5097375;28;20702;-89
2023/10/19 06:11:22;;;;;;;10.27;6.50;;;;;;;15.10;61.20;99161.13;5094656;28;20179;-88
2023/10/19 06:13:47;;;;;;;10.27;5.93;;;;;;;16.01;58.70;99152.69;5095417;28;20295;-89
2023/10/19 06:16:14;;;;;;;8.60;5.63;;;;;;;16.81;56.38;99157.16;5095579;28;20335;-90
2023/10/19 06:18:40;;;;;;;9.10;5.93;;;;;;;17.63;52.78;99143.53;5096357;28;20189;-89
2023/10/19 06:21:06;;;;;;;9.23;5.17;;;;;;;18.67;50.47;99149.81;5095765;28;20187;-90
2023/10/19 06:23:33;;;;;;;10.47;5.70;;;;;;;19.68;47.01;99149.81;5095943;28;20329;-89
2023/10/19 06:26:04;;;;;;;7.97;5.73;;;;;;;20.31;45.31;99151.13;5095995;28;20172;-89
2023/10/19 06:28:34;;;;;;;7.90;5.27;;;;;;;21.09;44.17;99153.50;5082555;28;20184;-89
2023/10/19 06:31:01;;;;;;;8.20;5.77;;;;;;;21.57;42.64;99148.75;5076154;28;20175;-89
2023/10/19 06:33:26;;;;;;;11.27;5.50;;;;;;;21.66;41.71;99145.19;5076843;28;20303;-89
2023/10/19 06:36:07;;;;;;;;;;;;;;;;;;;;;
2023/10/19 06:38:34;;;;;;;9.10;5.57;;;;;;;22.18;41.56;99146.22;5096964;28;20533;-89
2023/10/19 06:41:10;;;;;;;8.30;5.60;;;;;;;22.48;41.02;99147.66;5095392;28;20198;-89
2023/10/19 06:43:38;;;;;;;12.27;5.90;;;;;;;22.77;40.44;99147.41;5094736;28;20164;-89
2023/10/19 06:46:06;;;;;;;8.43;5.33;;;;;;;23.03;40.22;99150.91;5095254;28;20185;-89
2023/10/19 06:48:33;;;;;;;13.33;6.33;;;;;;;23.25;40.03;99153.00;5095528;28;20172;-90
2023/10/19 06:51:00;;;;;;;13.83;6.23;;;;;;;23.21;39.93;99146.31;5095475;28;20180;-90
2023/10/19 06:53:26;;;;;;;8.20;5.17;;;;;;;23.42;40.59;99152.13;5111300;28;20219;-90
2023/10/19 06:55:54;;;;;;;10.47;5.93;;;;;;;23.74;39.78;99146.03;5095288;28;20313;-90
2023/10/19 06:58:21;;;;;;;9.60;5.83;;;;;;;23.84;39.86;99149.41;5094848;28;20203;-91
2023/10/19 07:00:56;;;;;;;8.97;5.00;;;;;;;23.74;40.10;99141.50;5095297;28;20172;-91
2023/10/19 07:03:22;;;;;;;8.97;4.90;;;;;;;23.49;40.11;99153.13;5095550;28;20161;-90
2023/10/19 07:05:49;;;;;;;10.60;5.13;;;;;;;23.30;40.90;99148.00;5094228;28;20177;-90
2023/10/19 07:08:16;;;;;;;9.37;5.93;;;;;;;23.09;41.45;99150.25;5095135;28;20229;-91
2023/10/19 07:10:42;;;;;;;9.63;5.20;;;;;;;23.07;42.11;99154.91;5079343;28;20185;-90
2023/10/19 07:13:09;;;;;;;9.23;5.40;;;;;;;23.15;41.72;99153.13;5074723;28;20181;-90
2023/10/19 07:15:35;;;;;;;8.80;5.07;;;;;;;23.13;42.55;99146.25;5077966;28;20307;-91
2023/10/19 07:18:02;;;;;;;10.17;5.23;;;;;;;23.16;42.12;99138.78;5094950;28;20739;-90
2023/10/19 07:20:31;;;;;;;9.60;4.70;;;;;;;23.07;43.09;99136.19;5094432;28;20208;-91
2023/10/19 07:23:06;;;;;;;7.90;5.27;;;;;;;23.04;42.92;99141.84;5094845;28;20215;-90
2023/10/19 07:25:42;;;;;;;11.03;4.97;;;;;;;22.88;43.24;99139.09;5094898;28;20237;-90
2023/10/19 07:28:09;;;;;;;7.43;5.10;;;;;;;22.69;43.43;99142.00;5093244;28;20602;-91
2023/10/19 07:30:36;;;;;;;9.63;5.07;;;;;;;22.60;44.09;99141.91;5073515;28;20173;-90
2023/10/19 07:33:04;;;;;;;8.43;5.13;;;;;;;22.47;43.93;99137.97;5079377;28;20659;-90
2023/10/19 07:35:37;;;;;;;10.30;5.47;;;;;;;22.33;43.95;99144.69;5094547;28;20176;-90
2023/10/19 07:38:04;;;;;;;16.67;5.70;;;;;;;22.09;44.03;99139.13;5094468;28;20669;-90
2023/10/19 07:40:30;;;;;;;9.30;5.47;;;;;;;21.87;44.91;99140.44;5092971;28;20273;-90
2023/10/19 07:42:57;;;;;;;9.37;4.90;;;;;;;21.80;45.45;99135.84;5094466;28;20225;-90
2023/10/19 07:45:25;;;;;;;8.70;5.57;;;;;;;21.71;45.58;99134.06;5094046;28;20337;-91
2023/10/19 07:47:50;;;;;;;10.37;5.43;;;;;;;21.59;46.21;99130.78;5093353;28;20648;-90
2023/10/19 07:50:16;;;;;;;9.47;5.30;;;;;;;21.58;46.45;99133.59;5093199;28;20176;-90
2023/10/19 07:52:49;;;;;;;9.53;5.60;;;;;;;21.60;45.30;99131.59;5093253;28;20172;-90
2023/10/19 07:55:17;;;;;;;8.07;5.30;;;;;;;21.35;45.89;99136.69;5093850;28;20291;-90
2023/10/19 07:57:44;;;;;;;11.67;6.10;;;;;;;21.12;48.15;99138.03;5094289;28;20203;-90
2023/10/19 08:00:14;;;;;;;10.53;5.77;;;;;;;20.97;47.90;99136.81;5080713;28;20228;-91
2023/10/19 08:02:42;;;;;;;10.03;5.83;;;;;;;21.06;49.21;99137.75;5083733;28;20184;-91
2023/10/19 08:05:11;;;;;;;11.60;5.70;;;;;;;21.18;50.05;99136.59;5094303;28;20164;-91
2023/10/19 08:07:39;;;;;;;15.90;5.40;;;;;;;21.27;49.36;99120.59;5094199;28;20172;-90
2023/10/19 08:10:09;;;;;;;11.13;5.10;;;;;;;21.34;48.13;99126.13;5093099;28;20258;-91
2023/10/19 08:12:37;;;;;;;8.97;5.30;;;;;;;21.42;48.39;99120.91;5092966;28;20207;-91
2023/10/19 08:15:06;;;;;;;8.17;5.40;;;;;;;21.43;47.33;99115.41;5092850;28;20657;-91
2023/10/19 08:17:33;;;;;;;8.10;5.00;;;;;;;21.50;47.77;99115.66;5094141;28;20658;-90
2023/10/19 08:20:02;;;;;;;9.40;5.27;;;;;;;21.49;46.92;99113.16;5091670;28;20172;-91
2023/10/19 08:22:32;;;;;;;14.77;5.30;;;;;;;21.51;46.62;99106.69;5073580;28;20191;-91
2023/10/19 08:25:14;;;;;;;9.70;5.70;;;;;;;21.65;45.43;99114.16;5081280;28;20183;-91
2023/10/19 08:27:45;;;;;;;7.70;4.73;;;;;;;21.81;45.19;99109.00;5092926;28;20172;-92
2023/10/19 08:30:17;;;;;;;8.30;5.27;;;;;;;21.83;44.62;99101.66;5094146;28;20164;-92
2023/10/19 08:32:47;;;;;;;7.77;5.47;;;;;;;21.85;45.72;99109.53;5092637;28;20272;-92
2023/10/19 08:35:18;;;;;;;8.73;5.07;;;;;;;21.86;44.35;99100.53;5092899;28;20613;-91
2023/10/19 08:37:45;;;;;;;8.47;4.70;;;;;;;22.10;43.77;99100.78;5093849;28;20224;-91
2023/10/19 08:40:14;;;;;;;9.37;4.80;;;;;;;22.12;44.10;99096.09;5092418;28;20606;-91
2023/10/19 08:42:42;;;;;;;8.83;4.77;;;;;;;22.19;44.50;99102.53;5094239;28;20260;-92
2023/10/19 08:45:12;;;;;;;8.43;4.77;;;;;;;22.27;44.96;99102.59;5082411;28;20630;-92
2023/10/19 08:47:57;;;;;;;6.23;4.10;;;;;;;22.43;44.51;99089.34;5073386;28;20200;-91
2023/10/19 08:50:29;;;;;;;5.57;3.40;;;;;;;22.59;43.58;99100.13;5073462;28;20192;-90
2023/10/19 08:52:58;;;;;;;5.93;3.57;;;;;;;22.76;43.04;99089.59;5072444;28;20245;-91
2023/10/19 08:55:25;;;;;;;8.43;4.33;;;;;;;22.84;42.63;99097.66;5081394;28;20200;-92
2023/10/19 08:57:52;;;;;;;9.63;4.50;;;;;;;22.98;42.29;99084.50;5081019;28;20177;-93
2023/10/19 09:00:24;;;;;;;6.07;3.80;;;;;;;23.04;42.36;99088.38;5072411;28;20188;-91
2023/10/19 09:02:51;;;;;;;7.40;4.60;;;;;;;23.08;42.57;99095.09;5072381;28;20169;-92
2023/10/19 09:05:30;;;;;;;8.13;4.77;;;;;;;23.08;42.50;99089.75;5084667;28;20180;-92
2023/10/19 09:07:55;;;;;;;9.53;4.33;;;;;;;23.00;42.10;99087.03;5093809;28;20199;-92
2023/10/19 09:10:31;;;;;;;6.00;3.27;;;;;;;22.99;41.93;99080.00;5093485;28;20208;-92
2023/10/19 09:13:09;;;;;;;7.03;4.03;;;;;;;23.13;42.59;99074.06;5093806;28;20601;-92
2023/10/19 09:15:38;;;;;;;7.60;4.20;;;;;;;23.29;41.84;99070.59;5092598;28;20295;-92
2023/10/19 09:18:20;;;;;;;9.80;3.73;;;;;;;23.28;41.53;99069.75;5092566;28;20180;-93
2023/10/19 09:20:52;;;;;;;4.33;2.57;;;;;;;23.46;42.40;99067.00;5092398;28;20183;-92
2023/10/19 09:23:23;;;;;;;4.77;3.47;;;;;;;23.49;41.68;99062.16;5093220;28;20180;-93
2023/10/19 09:25:52;;;;;;;7.10;3.73;;;;;;;23.67;41.26;99062.03;5092484;28;20263;-92
2023/10/19 09:28:25;;;;;;;8.23;3.40;;;;;;;23.71;41.75;99055.34;5093230;28;20176;-92
2023/10/19 09:30:52;;;;;;;5.53;3.33;;;;;;;23.87;41.76;99059.88;5053058;28;20244;-92
2023/10/19 09:33:17;;;;;;;5.47;2.90;;;;;;;23.95;41.44;99059.88;5067652;28;20191;-92
2023/10/19 09:35:48;;;;;;;8.77;3.80;;;;;;;24.13;40.55;99049.88;5109307;28;20627;-92
2023/10/19 09:38:22;;;;;;;8.00;2.93;;;;;;;24.10;40.67;99048.38;5091827;28;20228;-92
2023/10/19 09:40:50;;;;;;;6.13;3.40;;;;;;;24.28;40.28;99045.50;5092223;28;20177;-92
2023/10/19 09:43:26;;;;;;;4.27;2.53;;;;;;;24.33;38.93;99046.66;5092353;28;20245;-92
2023/10/19 09:45:58;;;;;;;5.77;3.50;;;;;;;24.39;40.36;99039.78;5092983;28;20621;-92
2023/10/19 09:48:26;;;;;;;4.70;3.07;;;;;;;24.55;40.11;99045.13;5092259;28;20186;-93
2023/10/19 09:50:58;;;;;;;5.03;3.17;;;;;;;24.70;39.10;99038.03;5092100;28;20533;-92
2023/10/19 09:53:27;;;;;;;7.13;3.17;;;;;;;24.52;39.18;99042.78;5093061;28;20221;-91
2023/10/19 09:55:58;;;;;;;6.93;2.93;;;;;;;24.64;39.37;99033.34;5092064;28;20180;-92
2023/10/19 09:58:53;;;;;;;5.33;2.70;;;;;;;24.76;39.54;99021.28;5092137;28;20183;-93
2023/10/19 10:01:21;;;;;;;7.50;2.70;;;;;;;24.62;38.24;99019.31;5093357;28;20160;-92
2023/10/19 10:03:48;;;;;;;4.20;2.50;;;;;;;24.63;39.44;99026.34;5093444;28;20534;-92
2023/10/19 10:06:16;;;;;;;3.80;2.53;;;;;;;24.73;39.76;99026.97;5092254;28;20614;-93
2023/10/19 10:08:44;;;;;;;4.83;2.50;;;;;;;24.74;38.68;99007.19;5092115;28;20208;-93
2023/10/19 10:11:26;;;;;;;4.93;2.73;;;;;;;24.89;38.65;99007.34;5077437;28;20184;-93
2023/10/19 10:13:53;;;;;;;4.93;2.37;;;;;;;24.80;38.64;99006.53;5075998;28;20213;-92
2023/10/19 10:16:27;;;;;;;3.60;2.10;;;;;;;25.05;39.69;99001.91;5094008;28;20196;-91
2023/10/19 10:18:59;;;;;;;5.50;2.75;;;;;;;25.02;38.44;98996.88;5095055;28;20614;-92
2023/10/19 10:21:28;;;;;;;4.23;2.10;;;;;;;24.80;38.52;98995.81;5095354;28;20280;-93
2023/10/19 10:23:59;;;;;;;4.03;2.23;;;;;;;24.83;38.14;98984.75;5095110;28;20184;-92
2023/10/19 10:26:30;;;;;;;4.88;2.53;;;;;;;25.26;37.09;98974.47;5095196;28;20187;-91
2023/10/19 10:29:09;;;;;;;3.80;2.37;;;;;;;24.85;37.53;98973.81;5077879;28;20183;-93
2023/10/19 10:31:40;;;;;;;5.03;2.37;;;;;;;24.48;38.82;98979.81;5080407;28;20530;-92
2023/10/19 10:34:09;;;;;;;4.00;2.00;;;;;;;24.96;39.53;98963.56;5095078;28;20192;-92
2023/10/19 10:37:02;;;;;;;4.53;2.33;;;;;;;25.25;38.64;98956.66;5094826;28;20574;-92
2023/10/19 10:39:33;;;;;;;3.20;1.87;;;;;;;25.17;38.81;98943.31;5095598;28;20188;-91
2023/10/19 10:42:03;;;;;;;3.77;2.30;;;;;;;25.45;38.05;98937.22;5094850;28;20176;-92
2023/10/19 10:44:52;;;;;;;4.57;2.00;;;;;;;25.81;37.89;98936.66;5095002;28;20206;-93
2023/10/19 10:47:22;;;;;;;5.68;1.75;;;;;;;26.00;36.55;98926.19;5095129;28;20608;-93
2023/10/19 10:49:56;;;;;;;4.93;1.70;;;;;;;25.92;37.07;98923.59;5077825;28;20186;-93
2023/10/19 10:52:31;;;;;;;5.63;2.22;;;;;;;25.85;37.15;98916.44;5074750;28;20559;-92
2023/10/19 10:55:11;;;;;;;3.40;1.60;;;;;;;26.13;37.03;98912.16;5095709;28;20228;-94
2023/10/19 10:57:40;;;;;;;3.33;1.65;;;;;;;26.28;36.69;98907.63;5094561;28;20184;-92
2023/10/19 11:00:15;;;;;;;3.88;1.95;;;;;;;26.32;36.03;98898.16;5094244;28;20196;-94
2023/10/19 11:02:43;;;;;;;4.05;1.65;;;;;;;26.34;35.40;98887.22;5094755;28;20203;-93
2023/10/19 11:05:14;;;;;;;2.95;1.63;;;;;;;26.22;35.58;98897.63;5094542;28;20176;-94
2023/10/19 11:08:04;;;;;;;3.72;1.70;;;;;;;25.90;35.95;98903.31;5095548;28;20215;-94
2023/10/19 11:10:31;;;;;;;3.83;1.77;;;;;;;25.93;36.59;98894.88;5095316;28;20187;-93
2023/10/19 11:13:05;;;;;;;3.08;1.77;;;;;;;26.28;36.97;98896.88;5095684;28;20230;-93
2023/10/19 11:15:33;;;;;;;4.07;1.85;;;;;;;26.46;35.29;98889.28;5095903;28;20191;-93
2023/10/19 11:18:01;;;;;;;3.03;1.83;;;;;;;26.84;35.12;98888.09;5094390;28;20625;-91
2023/10/19 11:20:29;;;;;;;5.18;1.98;;;;;;;27.15;34.97;98885.09;5094497;28;20241;-92
2023/10/19 11:23:00;;;;;;;4.97;2.00;;;;;;;27.02;34.82;98884.16;5095276;28;20183;-93
2023/10/19 11:25:31;;;;;;;3.65;2.35;;;;;;;26.90;34.97;98875.75;5093487;28;20168;-91
2023/10/19 11:27:59;;;;;;;3.05;1.33;;;;;;;26.75;35.14;98872.25;5079478;28;20181;-93
2023/10/19 11:30:32;;;;;;;3.83;1.55;;;;;;;26.96;35.09;98869.63;5094244;28;20187;-93
2023/10/19 11:33:00;;;;;;;3.15;1.60;;;;;;;26.84;34.94;98869.28;5094034;28;20175;-92
2023/10/19 11:35:30;;;;;;;3.53;1.65;;;;;;;27.06;35.16;98862.06;5094857;28;20665;-93
2023/10/19 11:38:02;;;;;;;3.03;1.42;;;;;;;27.06;35.05;98856.69;5093890;28;20200;-90
2023/10/19 11:40:28;;;;;;;3.30;1.65;;;;;;;27.13;34.23;98845.97;5093878;28;20180;-91
2023/10/19 11:43:00;;;;;;;3.88;1.40;;;;;;;27.13;34.29;98846.81;5093865;28;20233;-89
2023/10/19 11:45:26;;;;;;;2.47;1.40;;;;;;;27.36;33.58;98838.50;5094004;28;20590;-87
2023/10/19 11:47:55;;;;;;;3.42;1.67;;;;;;;27.51;34.07;98841.16;5094908;28;20195;-92
2023/10/19 11:50:20;;;;;;;3.60;1.75;;;;;;;27.56;34.13;98833.31;5094061;28;20191;-92
2023/10/19 11:52:46;;;;;;;3.15;1.20;;;;;;;27.78;32.98;98837.59;5094757;28;20546;-91
2023/10/19 11:55:14;;;;;;;2.97;1.48;;;;;;;27.87;33.77;98829.19;5093694;28;20681;-90
2023/10/19 11:57:43;;;;;;;3.45;1.60;;;;;;;27.92;33.74;98829.44;5090555;28;20641;-91
2023/10/19 12:00:13;;;;;;;3.67;1.50;;;;;;;28.07;33.07;98826.63;5073762;28;20208;-91
2023/10/19 12:02:43;;;;;;;2.45;1.20;;;;;;;28.09;32.09;98829.97;5074527;28;20530;-92
2023/10/19 12:05:10;;;;;;;3.55;1.48;;;;;;;28.28;32.52;98818.44;5073869;28;20272;-91